Time;durP1;ratioP1;P1;durP2;ratioP2;P2;SDS_P1;SDS_P2;PMS_P1;PMS_P2;Temp;Humidity;BMP_temperature;BMP_pressure;BME280_temperature;BME280_humidity;BME280_pressure;Samples;Min_cycle;Max_cycle;Signal;HPM_P1;HPM_P2
2023/06/25 00:00:46;;;;;;;10.27;8.38;;;;;;;-145.63;54.73;39192.44;5063005;28;20033;-64
2023/06/25 00:03:12;;;;;;;10.95;8.18;;;;;;;-145.63;55.05;39145.50;5063234;28;20404;-64
2023/06/25 00:05:37;;;;;;;9.82;8.32;;;;;;;-145.63;54.69;39168.97;5063220;28;20254;-65
2023/06/25 00:08:03;;;;;;;9.65;8.20;;;;;;;-145.63;54.73;39196.34;5063044;28;20049;-65
2023/06/25 00:10:29;;;;;;;9.50;8.43;;;;;;;-145.63;54.69;39186.56;5063087;28;20036;-65
2023/06/25 00:12:54;;;;;;;11.80;8.52;;;;;;;-145.63;54.76;39174.84;5062818;28;20037;-65
2023/06/25 00:15:20;;;;;;;12.00;9.43;;;;;;;-145.63;55.01;39170.91;5062999;28;20029;-65
2023/06/25 00:17:47;;;;;;;14.38;9.27;;;;;;;-145.63;54.78;39186.56;5062867;28;20036;-63
2023/06/25 00:20:15;;;;;;;10.90;8.35;;;;;;;-145.63;54.89;39172.88;5063107;28;20092;-64
2023/06/25 00:22:42;;;;;;;10.38;8.50;;;;;;;-145.63;54.92;39155.28;5061642;28;20025;-63
2023/06/25 00:25:08;;;;;;;11.15;9.15;;;;;;;-145.63;54.63;39188.53;5062654;28;20025;-64
2023/06/25 00:27:33;;;;;;;9.35;8.45;;;;;;;-145.63;55.11;39223.72;5062792;28;20062;-63
2023/06/25 00:30:00;;;;;;;11.00;8.98;;;;;;;-145.63;55.10;39196.34;5062545;28;20025;-64
2023/06/25 00:32:26;;;;;;;9.55;8.60;;;;;;;-145.63;54.97;39163.09;5062901;28;20190;-64
2023/06/25 00:34:57;;;;;;;10.95;9.00;;;;;;;-145.63;55.08;39194.38;5062717;28;20036;-66
2023/06/25 00:37:23;;;;;;;9.98;8.55;;;;;;;-145.63;55.07;39172.88;5061740;28;20392;-65
2023/06/25 00:39:48;;;;;;;12.82;8.75;;;;;;;-145.63;54.85;39184.59;5062717;28;20029;-65
2023/06/25 00:42:15;;;;;;;14.35;9.52;;;;;;;-145.63;55.03;39194.38;5063063;28;20052;-65
2023/06/25 00:44:41;;;;;;;11.02;8.23;;;;;;;-145.63;54.96;39180.69;5062408;28;20025;-65
2023/06/25 00:47:12;;;;;;;12.27;9.40;;;;;;;-145.63;54.95;39200.25;5063076;28;20035;-65
2023/06/25 00:49:39;;;;;;;9.98;9.02;;;;;;;-145.63;54.64;39182.66;5062731;28;20036;-65
2023/06/25 00:52:08;;;;;;;14.00;10.48;;;;;;;-145.63;54.78;39225.69;5062559;28;20029;-65
2023/06/25 00:54:39;;;;;;;14.90;10.63;;;;;;;-145.63;55.03;39176.78;5062567;28;20206;-65
2023/06/25 00:57:07;;;;;;;11.67;9.67;;;;;;;-145.63;54.70;39256.97;5062574;28;20029;-66
2023/06/25 00:59:35;;;;;;;12.98;9.95;;;;;;;-145.63;54.91;39184.59;5062635;28;20760;-65
2023/06/25 01:02:27;;;;;;;12.90;10.23;;;;;;;-145.63;54.76;39204.16;5062750;28;20067;-65
2023/06/25 01:05:11;;;;;;;11.98;9.93;;;;;;;-145.63;54.97;39184.59;5039254;28;20037;-65
2023/06/25 01:07:42;;;;;;;11.05;9.95;;;;;;;-145.63;55.36;39176.78;5064784;28;20045;-64
2023/06/25 01:10:12;;;;;;;11.98;10.63;;;;;;;-145.63;55.04;39188.53;5065100;28;20033;-66
2023/06/25 01:12:38;;;;;;;12.05;10.07;;;;;;;-145.63;55.20;39202.22;5066294;28;20032;-65
2023/06/25 01:15:05;;;;;;;13.82;10.13;;;;;;;-145.63;55.25;39219.81;5066183;28;20033;-65
2023/06/25 01:17:30;;;;;;;13.25;10.88;;;;;;;-145.63;55.17;39208.06;5066411;28;20059;-66
2023/06/25 01:19:56;;;;;;;15.05;11.40;;;;;;;-145.63;55.25;39194.38;5065874;28;20021;-66
2023/06/25 01:22:30;;;;;;;12.38;10.73;;;;;;;-145.63;55.41;39208.06;5066272;28;20028;-65
2023/06/25 01:24:59;;;;;;;11.60;10.43;;;;;;;-145.63;55.28;39208.06;5065893;28;20032;-65
2023/06/25 01:27:25;;;;;;;14.70;10.38;;;;;;;-145.63;55.46;39204.16;5066012;28;20348;-66
2023/06/25 01:29:51;;;;;;;11.65;9.90;;;;;;;-145.63;55.45;39188.53;5065927;28;20025;-65
2023/06/25 01:32:18;;;;;;;12.50;10.45;;;;;;;-145.63;55.66;39174.84;5065934;28;20313;-66
2023/06/25 01:34:44;;;;;;;11.80;9.95;;;;;;;-145.63;55.67;39210.03;5065561;28;20060;-67
2023/06/25 01:37:09;;;;;;;10.85;9.65;;;;;;;-145.63;55.73;39180.69;5065804;28;20309;-67
2023/06/25 01:39:35;;;;;;;12.90;9.27;;;;;;;-145.63;55.66;39210.03;5065909;28;20070;-66
2023/06/25 01:42:00;;;;;;;12.13;9.20;;;;;;;-145.63;55.41;39172.88;5065576;28;20025;-66
2023/06/25 01:44:28;;;;;;;10.40;9.40;;;;;;;-145.63;55.99;39217.84;5065822;28;20052;-66
2023/06/25 01:46:54;;;;;;;10.93;9.73;;;;;;;-145.63;56.18;39198.31;5065403;28;20044;-67
2023/06/25 01:49:20;;;;;;;10.60;9.60;;;;;;;-145.63;55.66;39176.78;5064428;28;20056;-67
2023/06/25 01:51:46;;;;;;;11.40;10.05;;;;;;;-145.63;55.81;39202.22;5064354;28;20070;-65
2023/06/25 01:54:11;;;;;;;11.85;9.73;;;;;;;-145.63;55.60;39204.16;5065831;28;20036;-66
2023/06/25 01:56:37;;;;;;;10.63;9.45;;;;;;;-145.63;55.74;39174.84;5065405;28;20286;-66
2023/06/25 01:59:03;;;;;;;11.27;9.65;;;;;;;-145.63;55.86;39202.22;5065546;28;20040;-65
2023/06/25 02:01:29;;;;;;;10.32;9.20;;;;;;;-145.63;56.13;39172.88;5065442;28;20021;-66
2023/06/25 02:03:55;;;;;;;12.25;9.15;;;;;;;-145.63;55.50;39157.22;5065390;28;20028;-65
2023/06/25 02:06:21;;;;;;;10.13;9.10;;;;;;;-145.63;55.83;39167.00;5065251;28;20044;-65
2023/06/25 02:08:47;;;;;;;11.65;9.88;;;;;;;-145.63;55.67;39192.44;5064729;28;20229;-66
2023/06/25 02:11:12;;;;;;;12.85;8.88;;;;;;;-145.63;55.58;39172.88;5065537;28;20086;-65
2023/06/25 02:13:38;;;;;;;12.18;10.77;;;;;;;-145.63;55.69;39168.97;5065090;28;20025;-66
2023/06/25 02:16:04;;;;;;;10.80;9.32;;;;;;;-145.63;55.72;39168.97;5064911;28;20032;-64
2023/06/25 02:18:31;;;;;;;11.48;8.90;;;;;;;-145.63;55.76;39204.16;5064609;28;20100;-65
2023/06/25 02:21:17;;;;;;;10.43;9.35;;;;;;;-145.63;55.86;38977.31;5064296;28;20029;-65
2023/06/25 02:23:42;;;;;;;10.65;9.55;;;;;;;-145.63;55.87;39172.88;5065100;28;20067;-65
2023/06/25 02:26:09;;;;;;;15.77;12.43;;;;;;;-145.63;56.15;39123.97;5064995;28;20037;-66
2023/06/25 02:28:34;;;;;;;12.57;11.38;;;;;;;-145.63;56.07;39133.75;5063599;28;20025;-65
2023/06/25 02:31:00;;;;;;;14.48;10.10;;;;;;;-145.63;55.74;39149.41;5064602;28;20260;-64
2023/06/25 02:33:26;;;;;;;13.32;10.52;;;;;;;-145.63;55.92;39125.94;5064831;28;20067;-64
2023/06/25 02:35:51;;;;;;;10.63;9.63;;;;;;;-145.63;55.97;39112.25;5064723;28;20024;-64
2023/06/25 02:38:17;;;;;;;10.88;9.77;;;;;;;-145.63;55.78;39055.53;5064805;28;20095;-65
2023/06/25 02:40:42;;;;;;;11.95;10.30;;;;;;;-145.63;55.63;39077.06;5064623;28;20040;-66
2023/06/25 02:43:08;;;;;;;12.25;10.65;;;;;;;-145.63;55.47;39118.13;5064591;28;20029;-65
2023/06/25 02:45:33;;;;;;;14.07;12.05;;;;;;;-145.63;55.51;39143.53;5064742;28;20029;-63
2023/06/25 02:47:59;;;;;;;14.02;12.73;;;;;;;-145.63;55.53;39112.25;5064208;28;20039;-65
2023/06/25 02:50:24;;;;;;;13.07;11.68;;;;;;;-145.63;55.74;39122.03;5064263;28;20028;-66
2023/06/25 02:52:50;;;;;;;15.23;13.18;;;;;;;-145.63;55.30;39129.84;5064158;28;20035;-65
2023/06/25 02:55:15;;;;;;;15.02;11.60;;;;;;;-145.63;55.50;39106.38;5076137;28;20189;-66
2023/06/25 02:57:41;;;;;;;13.48;12.07;;;;;;;-145.63;55.38;39071.19;5075751;28;20100;-66
2023/06/25 03:00:07;;;;;;;19.80;13.63;;;;;;;-145.63;55.10;39098.56;5064127;28;20190;-65
2023/06/25 03:02:33;;;;;;;15.40;12.95;;;;;;;-145.63;55.21;39039.88;5064308;28;20033;-65
2023/06/25 03:04:58;;;;;;;18.25;13.60;;;;;;;-145.63;54.90;39032.06;5064058;28;20036;-64
2023/06/25 03:07:24;;;;;;;16.60;13.13;;;;;;;-145.63;54.83;39053.59;5064001;28;20051;-65
2023/06/25 03:09:49;;;;;;;18.00;15.13;;;;;;;-145.63;54.55;39035.97;5064009;28;20060;-65
2023/06/25 03:12:15;;;;;;;18.05;16.15;;;;;;;-145.63;52.97;39028.16;5064136;28;20100;-66
2023/06/25 03:14:41;;;;;;;16.15;14.18;;;;;;;-145.63;52.24;39030.13;5064049;28;20029;-64
2023/06/25 03:17:06;;;;;;;14.85;13.07;;;;;;;-145.63;52.05;39016.44;5042691;28;20037;-66
2023/06/25 03:19:32;;;;;;;16.20;12.88;;;;;;;-145.63;51.63;38994.91;5059472;28;20028;-66
2023/06/25 03:21:58;;;;;;;15.35;12.50;;;;;;;-145.63;50.98;38773.94;5063294;28;20060;-66
2023/06/25 03:24:24;;;;;;;14.77;11.38;;;;;;;-145.63;50.51;38924.50;5063759;28;20229;-66
2023/06/25 03:26:50;;;;;;;16.70;12.75;;;;;;;-145.63;49.75;38932.34;5062536;28;20116;-66
2023/06/25 03:29:15;;;;;;;12.93;11.60;;;;;;;-145.63;49.61;38942.13;5062749;28;20032;-65
2023/06/25 03:31:41;;;;;;;13.68;11.75;;;;;;;-145.63;49.72;38934.28;5063228;28;20201;-66
2023/06/25 03:34:07;;;;;;;12.48;11.13;;;;;;;-145.63;49.54;38949.94;5063464;28;20276;-66
2023/06/25 03:36:32;;;;;;;14.85;11.93;;;;;;;-145.63;49.04;38930.38;5063250;28;20032;-66
2023/06/25 03:38:58;;;;;;;11.75;10.50;;;;;;;-145.63;49.38;38914.72;5062853;28;20032;-66
2023/06/25 03:41:24;;;;;;;14.43;11.55;;;;;;;-145.63;49.74;38910.81;5062852;28;20025;-67
2023/06/25 03:43:50;;;;;;;13.95;12.13;;;;;;;-145.63;50.01;38914.72;5063250;28;20202;-66
2023/06/25 03:46:16;;;;;;;13.13;11.40;;;;;;;-145.63;49.69;38930.38;5063187;28;20020;-66
2023/06/25 03:48:42;;;;;;;12.93;11.48;;;;;;;-145.63;49.72;38920.59;5063177;28;20025;-66
2023/06/25 03:51:08;;;;;;;11.48;10.38;;;;;;;-145.63;48.96;38930.38;5062925;28;20052;-67
2023/06/25 03:53:34;;;;;;;12.20;10.38;;;;;;;-145.63;48.97;38891.28;5063207;28;20516;-66
2023/06/25 03:56:00;;;;;;;11.80;10.25;;;;;;;-145.63;47.77;38891.28;5061579;28;20074;-67
2023/06/25 03:58:25;;;;;;;12.13;10.52;;;;;;;-145.63;48.34;38901.03;5062862;28;20032;-66
2023/06/25 04:00:51;;;;;;;11.00;9.88;;;;;;;-145.63;48.22;38938.19;5062266;28;20029;-65
2023/06/25 04:03:16;;;;;;;11.73;9.98;;;;;;;-145.63;47.90;38859.97;5062777;28;20057;-65
2023/06/25 04:05:42;;;;;;;10.07;8.60;;;;;;;-145.63;47.89;38906.91;5062694;28;20032;-65
2023/06/25 04:08:08;;;;;;;12.65;9.45;;;;;;;-145.63;48.43;38881.50;5062825;28;20051;-65
2023/06/25 04:10:33;;;;;;;12.98;9.82;;;;;;;-145.63;47.83;38871.72;5062674;28;20055;-65
2023/06/25 04:12:59;;;;;;;9.98;8.77;;;;;;;-145.63;46.92;38889.31;5062668;28;20037;-65
2023/06/25 04:15:24;;;;;;;8.55;7.70;;;;;;;-145.63;47.28;38859.97;5062971;28;20028;-66
2023/06/25 04:17:50;;;;;;;9.18;7.80;;;;;;;-145.63;47.48;38875.63;5062820;28;20063;-66
2023/06/25 04:20:15;;;;;;;12.50;8.52;;;;;;;-145.63;47.94;38871.72;5062580;28;20021;-65
2023/06/25 04:22:41;;;;;;;10.02;8.93;;;;;;;-145.63;47.26;38867.81;5062257;28;20230;-65
2023/06/25 04:25:07;;;;;;;11.88;7.97;;;;;;;-145.63;46.70;38951.88;5062726;28;20052;-65
2023/06/25 04:27:32;;;;;;;10.18;8.75;;;;;;;-145.63;46.86;38844.34;5062539;28;20033;-66
2023/06/25 04:29:58;;;;;;;10.45;8.88;;;;;;;-145.63;45.28;38848.25;5062628;28;20028;-66
2023/06/25 04:32:24;;;;;;;11.73;8.82;;;;;;;-145.63;45.37;38820.88;5062611;28;20048;-66
2023/06/25 04:34:49;;;;;;;10.20;8.32;;;;;;;-145.63;45.53;38830.66;5062607;28;20025;-65
2023/06/25 04:37:15;;;;;;;9.82;8.10;;;;;;;-145.63;44.95;38836.50;5062533;28;20025;-66
2023/06/25 04:39:41;;;;;;;8.05;7.25;;;;;;;-145.63;44.50;38840.44;5062603;28;20040;-66
2023/06/25 04:42:07;;;;;;;11.68;7.68;;;;;;;-145.63;44.20;38850.19;5065369;28;20033;-66
2023/06/25 04:44:32;;;;;;;8.13;6.82;;;;;;;-145.63;44.40;38805.22;5066707;28;20029;-66
2023/06/25 04:46:58;;;;;;;8.98;7.95;;;;;;;-145.63;44.04;38836.50;5065265;28;20384;-64
2023/06/25 04:49:24;;;;;;;7.68;6.88;;;;;;;-145.63;43.64;38795.44;5066537;28;20070;-67
2023/06/25 04:51:49;;;;;;;10.48;7.50;;;;;;;-145.63;43.58;38816.97;5066343;28;20100;-66
2023/06/25 04:54:15;;;;;;;7.93;6.95;;;;;;;-145.63;43.63;38783.72;5066673;28;20021;-66
2023/06/25 04:56:40;;;;;;;8.80;7.25;;;;;;;-145.63;43.91;38813.03;5066290;28;20029;-67
2023/06/25 04:59:06;;;;;;;8.35;6.72;;;;;;;-145.63;43.45;38758.28;5064946;28;20032;-66
2023/06/25 05:01:32;;;;;;;7.25;6.55;;;;;;;-145.63;41.80;38773.94;5064976;28;20033;-65
2023/06/25 05:03:58;;;;;;;7.40;6.43;;;;;;;-145.63;41.90;38840.44;5065088;28;20078;-65
2023/06/25 05:06:25;;;;;;;7.43;6.57;;;;;;;-145.63;41.20;38770.03;5066045;28;20160;-66
2023/06/25 05:08:50;;;;;;;8.32;6.32;;;;;;;-145.63;41.81;38773.94;5065940;28;20326;-65
2023/06/25 05:11:16;;;;;;;7.25;6.40;;;;;;;-145.63;41.74;38732.88;5066274;28;20035;-66
2023/06/25 05:13:41;;;;;;;7.45;6.13;;;;;;;-145.63;41.43;38736.78;5066109;28;20047;-66
2023/06/25 05:16:07;;;;;;;6.40;5.68;;;;;;;-145.63;39.85;38758.28;5065507;28;20032;-66
2023/06/25 05:18:32;;;;;;;6.88;6.00;;;;;;;-145.63;40.45;38781.75;5066114;28;20025;-67
2023/06/25 05:20:58;;;;;;;7.18;5.88;;;;;;;-145.63;40.45;38756.34;5065393;28;20032;-66
2023/06/25 05:23:25;;;;;;;7.10;6.03;;;;;;;-145.63;40.40;38736.78;5064797;28;20028;-66
2023/06/25 05:25:50;;;;;;;7.45;6.50;;;;;;;-145.63;39.88;38781.75;5065746;28;20029;-66
2023/06/25 05:28:16;;;;;;;7.10;5.88;;;;;;;-145.63;39.54;38742.66;5065677;28;20363;-64
2023/06/25 05:30:41;;;;;;;6.35;5.80;;;;;;;-145.63;39.47;38732.88;5064508;28;20029;-66
2023/06/25 05:33:07;;;;;;;6.85;5.80;;;;;;;-145.63;39.17;38707.44;5065715;28;20032;-66
2023/06/25 05:35:32;;;;;;;6.47;5.95;;;;;;;-145.63;38.55;38676.16;5064585;28;20063;-65
2023/06/25 05:37:58;;;;;;;8.52;5.95;;;;;;;-145.63;38.42;38711.38;5065621;28;20032;-67
2023/06/25 05:40:27;;;;;;;7.53;6.03;;;;;;;-145.63;37.97;38689.84;5065688;28;20017;-66
2023/06/25 05:42:54;;;;;;;6.63;6.03;;;;;;;-145.63;38.45;38678.13;5053898;28;20043;-65
2023/06/25 05:45:21;;;;;;;7.10;5.53;;;;;;;-145.63;38.57;38682.03;5065578;28;20032;-67
2023/06/25 05:47:46;;;;;;;6.75;5.95;;;;;;;-145.63;37.38;38652.69;5065058;28;20332;-66
2023/06/25 05:50:12;;;;;;;7.20;6.50;;;;;;;-145.63;38.40;38652.69;5064262;28;20041;-66
2023/06/25 05:52:41;;;;;;;7.50;6.30;;;;;;;-145.63;38.20;38621.41;5064385;28;20048;-66
2023/06/25 05:55:06;;;;;;;7.03;6.07;;;;;;;-145.63;38.48;38621.41;5065120;28;20025;-67
2023/06/25 05:57:32;;;;;;;7.50;5.63;;;;;;;-145.63;38.42;38605.78;5065293;28;20075;-68
2023/06/25 05:59:57;;;;;;;6.03;5.47;;;;;;;-145.63;38.17;38590.13;5065130;28;20209;-68
2023/06/25 06:02:23;;;;;;;7.72;5.72;;;;;;;-145.63;37.07;38570.56;5065118;28;20330;-65
2023/06/25 06:04:48;;;;;;;8.45;6.25;;;;;;;-145.63;36.64;38554.94;5065082;28;20195;-65
2023/06/25 06:07:14;;;;;;;8.68;7.15;;;;;;;-145.63;36.08;38533.41;5063576;28;20041;-66
2023/06/25 06:09:40;;;;;;;7.95;6.32;;;;;;;-145.63;36.67;38592.09;5047192;28;20075;-66
2023/06/25 06:12:05;;;;;;;7.13;6.32;;;;;;;-145.63;36.86;38578.41;5064708;28;20037;-65
2023/06/25 06:14:33;;;;;;;6.20;5.35;;;;;;;-145.63;37.57;38558.84;5063794;28;20024;-65
2023/06/25 06:16:58;;;;;;;8.50;6.00;;;;;;;-145.63;36.27;38594.03;5064456;28;20040;-68
2023/06/25 06:19:24;;;;;;;6.93;6.22;;;;;;;-145.63;35.53;38580.34;5064650;28;20020;-67
2023/06/25 06:21:49;;;;;;;7.75;5.95;;;;;;;-145.63;35.81;38554.94;5064512;28;20070;-66
2023/06/25 06:24:15;;;;;;;6.57;5.00;;;;;;;-145.63;32.63;38537.34;5064884;28;20021;-67
2023/06/25 06:26:40;;;;;;;5.82;5.20;;;;;;;-145.63;33.63;38554.94;5065055;28;20025;-65
2023/06/25 06:29:06;;;;;;;6.28;5.47;;;;;;;-145.63;34.53;38535.38;5063501;28;20025;-65
2023/06/25 06:31:32;;;;;;;9.05;5.40;;;;;;;-145.63;35.21;38543.19;5064917;28;20029;-65
2023/06/25 06:33:58;;;;;;;7.53;5.40;;;;;;;-145.63;35.25;38515.81;5064833;28;20025;-66
2023/06/25 06:36:23;;;;;;;7.63;4.88;;;;;;;-145.63;33.92;38535.38;5064880;28;20333;-68
2023/06/25 06:38:50;;;;;;;5.55;4.47;;;;;;;-145.63;34.03;38515.81;5064822;28;20080;-68
2023/06/25 06:41:15;;;;;;;6.18;4.70;;;;;;;-145.63;32.44;38537.34;5064466;28;20031;-67
2023/06/25 06:43:41;;;;;;;5.75;5.00;;;;;;;-145.63;32.59;38535.38;5064404;28;20044;-65
2023/06/25 06:46:07;;;;;;;5.38;4.80;;;;;;;-145.63;31.35;38564.72;5064438;28;20337;-66
2023/06/25 06:48:32;;;;;;;5.28;4.63;;;;;;;-145.63;32.75;38492.34;5064410;28;20029;-67
2023/06/25 06:50:58;;;;;;;5.50;4.45;;;;;;;-145.63;32.64;38490.41;5064330;28;20401;-66
2023/06/25 06:53:25;;;;;;;5.70;5.15;;;;;;;-145.63;32.55;38521.69;5063281;28;20202;-66
2023/06/25 06:55:51;;;;;;;5.28;4.78;;;;;;;-145.63;30.50;38470.84;5064294;28;20025;-66
2023/06/25 06:58:17;;;;;;;8.43;5.47;;;;;;;-145.63;30.64;38482.59;5064376;28;20027;-67
2023/06/25 07:00:42;;;;;;;5.43;4.60;;;;;;;-145.63;31.09;38414.16;5064185;28;20032;-67
2023/06/25 07:03:08;;;;;;;6.63;4.97;;;;;;;-145.63;30.18;38433.69;5064292;28;20335;-65
2023/06/25 07:05:33;;;;;;;5.43;4.93;;;;;;;-145.63;30.56;38441.53;5064261;28;20217;-67
2023/06/25 07:07:59;;;;;;;6.50;5.53;;;;;;;-145.63;31.02;38418.06;5063823;28;20041;-66
2023/06/25 07:10:24;;;;;;;6.47;5.78;;;;;;;-145.63;30.25;38449.34;5064067;28;20029;-67
2023/06/25 07:12:50;;;;;;;6.95;5.38;;;;;;;-145.63;30.61;38421.97;5063968;28;20036;-67
2023/06/25 07:15:16;;;;;;;8.20;6.15;;;;;;;-145.63;30.74;38449.34;5072977;28;20055;-66
2023/06/25 07:17:41;;;;;;;8.20;5.85;;;;;;;-145.63;30.93;38418.06;5064147;28;20275;-66
2023/06/25 07:20:08;;;;;;;7.57;5.70;;;;;;;-145.63;31.83;38371.13;5063776;28;20040;-67
2023/06/25 07:22:34;;;;;;;7.00;4.95;;;;;;;-145.63;32.11;38406.31;5063739;28;20066;-66
2023/06/25 07:25:00;;;;;;;8.38;5.93;;;;;;;-145.63;31.05;38388.72;5062296;28;20032;-67
2023/06/25 07:27:25;;;;;;;6.13;5.57;;;;;;;-145.63;30.16;38373.09;5063881;28;20055;-67
2023/06/25 07:29:51;;;;;;;15.63;14.13;;;;;;;-145.63;30.33;38355.50;5063513;28;20017;-66
2023/06/25 07:32:16;;;;;;;5.57;5.05;;;;;;;-145.63;29.53;38375.03;5063647;28;20025;-66
2023/06/25 07:34:43;;;;;;;5.70;5.20;;;;;;;-145.63;28.83;38398.50;5063306;28;20341;-65
2023/06/25 07:37:08;;;;;;;5.93;5.32;;;;;;;-145.63;28.50;38378.94;5063574;28;20028;-67
2023/06/25 07:39:34;;;;;;;6.43;4.88;;;;;;;-145.63;29.03;38382.88;5063535;28;20039;-66
2023/06/25 07:42:00;;;;;;;6.47;5.50;;;;;;;-145.63;28.99;38322.25;5043566;28;20060;-66
2023/06/25 07:44:25;;;;;;;5.55;5.05;;;;;;;-145.63;29.63;38337.88;5063570;28;20024;-66
2023/06/25 07:46:51;;;;;;;6.57;5.90;;;;;;;-145.63;28.98;38328.13;5063453;28;20035;-66
2023/06/25 07:49:17;;;;;;;6.63;5.82;;;;;;;-145.63;29.11;38306.59;5063244;28;20051;-67
2023/06/25 07:51:51;;;;;;;6.70;5.57;;;;;;;-145.63;28.22;38322.25;5063241;28;20139;-67
2023/06/25 07:54:18;;;;;;;10.25;5.47;;;;;;;-145.63;28.92;38343.75;5062925;28;20028;-67
2023/06/25 07:56:44;;;;;;;7.03;5.43;;;;;;;-145.63;28.94;38312.47;5062936;28;20033;-67
2023/06/25 07:59:12;;;;;;;7.25;5.70;;;;;;;-145.63;27.67;38101.31;5063239;28;20033;-67
2023/06/25 08:01:38;;;;;;;52.47;47.47;;;;;;;-145.63;28.54;38337.88;5063397;28;20055;-66
2023/06/25 08:04:03;;;;;;;9.00;8.23;;;;;;;-145.63;27.78;38265.53;5063102;28;20025;-66
2023/06/25 08:06:29;;;;;;;7.60;6.90;;;;;;;-145.63;28.63;38261.63;5062974;28;20024;-67
2023/06/25 08:08:55;;;;;;;7.13;5.80;;;;;;;-145.63;28.61;38220.56;5063105;28;20081;-65
2023/06/25 08:11:20;;;;;;;6.10;5.50;;;;;;;-145.63;28.26;38257.72;5062992;28;20056;-66
2023/06/25 08:13:46;;;;;;;6.03;5.35;;;;;;;-145.63;27.15;38261.63;5062871;28;20078;-66
2023/06/25 08:16:11;;;;;;;7.60;5.85;;;;;;;-145.63;27.54;38351.56;5062516;28;20047;-65
2023/06/25 08:18:37;;;;;;;6.20;5.60;;;;;;;-145.63;28.27;38267.50;5063092;28;20048;-67
2023/06/25 08:21:02;;;;;;;6.90;5.75;;;;;;;-145.63;28.55;38216.66;5062752;28;20029;-67
2023/06/25 08:23:28;;;;;;;6.05;5.45;;;;;;;-145.63;27.23;38202.97;5063109;28;20029;-67
2023/06/25 08:25:55;;;;;;;8.25;5.82;;;;;;;-145.63;27.35;38206.88;5062999;28;20041;-66
2023/06/25 08:28:20;;;;;;;7.93;5.25;;;;;;;-145.63;27.25;38187.34;5062838;28;20029;-67
2023/06/25 08:30:46;;;;;;;7.20;5.72;;;;;;;-145.63;27.38;38183.44;5062970;28;20043;-66
2023/06/25 08:33:11;;;;;;;6.32;5.80;;;;;;;-145.63;27.88;38179.50;5062879;28;20345;-66
2023/06/25 08:35:37;;;;;;;5.35;4.90;;;;;;;-145.63;28.49;38136.50;5062809;28;20190;-67
2023/06/25 08:38:02;;;;;;;6.70;5.93;;;;;;;-145.63;26.63;38136.50;5062777;28;20035;-66
2023/06/25 08:40:31;;;;;;;6.60;5.05;;;;;;;-145.63;26.96;38144.31;5062624;28;20040;-66
2023/06/25 08:42:56;;;;;;;6.50;5.75;;;;;;;-145.63;26.43;38115.00;5062573;28;20027;-65
2023/06/25 08:45:22;;;;;;;9.73;6.78;;;;;;;-145.63;25.99;38140.41;5062903;28;20052;-67
2023/06/25 08:47:54;;;;;;;26.25;23.98;;;;;;;-145.63;26.14;38144.31;5062668;28;20029;-65
2023/06/25 08:50:20;;;;;;;7.10;6.38;;;;;;;-145.63;25.91;38177.56;5062607;28;20321;-67
2023/06/25 08:52:46;;;;;;;8.60;7.78;;;;;;;-145.63;26.10;38148.22;5061462;28;20037;-65
2023/06/25 08:55:13;;;;;;;7.25;6.32;;;;;;;-145.63;26.85;38093.50;5061372;28;20044;-66
2023/06/25 08:57:39;;;;;;;7.55;6.40;;;;;;;-145.63;26.29;38089.56;5062591;28;20128;-67
2023/06/25 09:00:08;;;;;;;6.63;5.93;;;;;;;-145.63;26.61;38113.03;5061529;28;20027;-65
2023/06/25 09:02:34;;;;;;;14.70;13.25;;;;;;;-145.63;26.35;38083.72;5062631;28;20055;-66
2023/06/25 09:05:07;;;;;;;6.65;5.97;;;;;;;-145.63;25.72;38077.84;5062379;28;20342;-67
2023/06/25 09:07:46;;;;;;;8.32;6.22;;;;;;;-145.63;26.01;38109.13;5061156;28;20065;-67
2023/06/25 09:10:12;;;;;;;6.93;5.88;;;;;;;-145.63;26.53;38052.44;5062340;28;20107;-66
2023/06/25 09:12:38;;;;;;;7.03;6.15;;;;;;;-145.63;27.42;38062.22;5062431;28;20225;-67
2023/06/25 09:15:07;;;;;;;6.90;6.18;;;;;;;-145.63;27.05;38032.88;5061315;28;20029;-66
2023/06/25 09:17:33;;;;;;;7.30;6.60;;;;;;;-145.63;25.97;38085.66;5042830;28;20053;-67
2023/06/25 09:20:06;;;;;;;9.32;6.68;;;;;;;-145.63;27.05;37999.66;5057815;28;20095;-66
2023/06/25 09:22:32;;;;;;;7.95;6.50;;;;;;;-145.63;26.87;37946.84;5062151;28;20051;-66
2023/06/25 09:24:57;;;;;;;8.98;8.18;;;;;;;-145.63;26.48;37948.81;5062160;28;20320;-67
2023/06/25 09:27:23;;;;;;;7.03;6.30;;;;;;;-145.63;26.45;37964.44;5062280;28;20031;-66
2023/06/25 09:29:49;;;;;;;6.88;5.93;;;;;;;-145.63;26.48;37944.91;5066042;28;20028;-66
2023/06/25 09:32:17;;;;;;;7.25;6.35;;;;;;;-145.63;25.94;37960.53;5064612;28;20095;-66
2023/06/25 09:34:46;;;;;;;7.45;6.22;;;;;;;-145.63;25.60;37993.78;5065757;28;20062;-66
2023/06/25 09:37:12;;;;;;;6.80;6.10;;;;;;;-145.63;26.57;37982.03;5065623;28;20311;-66
2023/06/25 09:39:37;;;;;;;7.53;6.68;;;;;;;-145.63;25.95;38015.28;5064672;28;20040;-66
2023/06/25 09:42:05;;;;;;;8.63;6.45;;;;;;;-145.63;26.04;37665.34;5065567;28;20040;-67
2023/06/25 09:44:34;;;;;;;7.07;6.30;;;;;;;-145.63;24.90;37999.66;5065503;28;20043;-66
2023/06/25 09:47:07;;;;;;;7.55;6.20;;;;;;;-145.63;25.45;38021.16;5065292;28;20033;-65
2023/06/25 09:49:33;;;;;;;11.60;6.68;;;;;;;-145.63;26.48;38011.38;5065509;28;20070;-67
2023/06/25 09:52:18;;;;;;;6.95;6.25;;;;;;;-145.63;24.73;38015.28;5065596;28;20025;-66
2023/06/25 09:54:45;;;;;;;8.48;5.75;;;;;;;-145.63;24.47;38136.50;5065586;28;20056;-66
2023/06/25 09:57:16;;;;;;;7.88;5.63;;;;;;;-145.63;24.79;38011.38;5065637;28;20046;-65
2023/06/25 09:59:42;;;;;;;6.97;6.30;;;;;;;-145.63;24.72;37976.19;5065610;28;20029;-66
2023/06/25 10:02:08;;;;;;;6.80;6.13;;;;;;;-145.63;25.07;37944.91;5065202;28;20036;-65
2023/06/25 10:04:35;;;;;;;7.55;5.78;;;;;;;-145.63;23.39;37995.72;5065439;28;20298;-65
2023/06/25 10:07:04;;;;;;;6.63;5.97;;;;;;;-145.63;23.15;38032.88;5065177;28;20067;-66
2023/06/25 10:09:30;;;;;;;7.50;6.60;;;;;;;-145.63;23.81;38052.44;5065301;28;20033;-67
2023/06/25 10:11:57;;;;;;;7.85;6.22;;;;;;;-145.63;24.13;37999.66;5065389;28;20323;-66
2023/06/25 10:14:23;;;;;;;7.70;5.97;;;;;;;-145.63;23.95;37960.53;5063924;28;20256;-66
2023/06/25 10:16:56;;;;;;;10.15;6.53;;;;;;;-145.63;23.22;37958.59;5065043;28;20029;-66
2023/06/25 10:19:26;;;;;;;7.78;6.10;;;;;;;-145.63;23.42;38003.56;5065044;28;20322;-66
2023/06/25 10:22:10;;;;;;;7.28;6.57;;;;;;;-145.63;23.07;38048.53;5065036;28;20029;-66
2023/06/25 10:24:46;;;;;;;6.63;5.88;;;;;;;-145.63;23.49;38048.53;5064860;28;20147;-66
2023/06/25 10:27:21;;;;;;;6.88;6.28;;;;;;;-145.63;23.53;38030.94;5064885;28;20114;-68
2023/06/25 10:29:47;;;;;;;7.10;6.43;;;;;;;-145.63;24.26;37792.41;5064986;28;20052;-67
2023/06/25 10:32:13;;;;;;;8.85;6.80;;;;;;;-145.63;25.81;38015.28;5064704;28;20033;-66
2023/06/25 10:34:40;;;;;;;6.40;5.82;;;;;;;-145.63;23.18;38054.38;5064671;28;20206;-67
2023/06/25 10:37:06;;;;;;;7.72;6.15;;;;;;;-145.63;22.99;38050.47;5064934;28;20079;-67
2023/06/25 10:39:39;;;;;;;6.70;6.10;;;;;;;-145.63;23.37;37999.66;5064467;28;20029;-66
2023/06/25 10:42:05;;;;;;;7.43;6.60;;;;;;;-145.63;23.81;37933.16;5043542;28;20318;-66
2023/06/25 10:44:32;;;;;;;8.00;6.68;;;;;;;-145.63;23.74;37944.91;5064021;28;20035;-66
2023/06/25 10:47:10;;;;;;;7.82;7.07;;;;;;;-145.63;22.92;37991.81;5064546;28;20032;-67
2023/06/25 10:49:36;;;;;;;8.00;7.22;;;;;;;-145.63;24.49;37944.91;5064788;28;20025;-66
2023/06/25 10:52:03;;;;;;;6.38;5.85;;;;;;;-145.63;24.40;37929.25;5064461;28;20025;-65
2023/06/25 10:54:31;;;;;;;7.47;6.60;;;;;;;-145.63;24.71;37913.63;5064501;28;20094;-66
2023/06/25 10:57:27;;;;;;;7.25;6.55;;;;;;;-145.63;23.54;37937.09;5064406;28;20040;-66
2023/06/25 10:59:53;;;;;;;7.55;6.80;;;;;;;-145.63;23.97;37989.88;5032191;28;20080;-66
2023/06/25 11:02:21;;;;;;;7.25;6.63;;;;;;;-145.63;24.42;37993.78;5077103;28;20033;-66
2023/06/25 11:04:51;;;;;;;6.80;6.10;;;;;;;-145.63;23.72;37929.25;5064124;28;20340;-66
2023/06/25 11:07:21;;;;;;;10.60;7.72;;;;;;;-145.63;23.47;38001.59;5064216;28;20053;-66
2023/06/25 11:10:07;;;;;;;7.32;6.60;;;;;;;-145.63;23.57;38050.47;5063923;28;20032;-66